Time;durP1;ratioP1;P1;durP2;ratioP2;P2;SDS_P1;SDS_P2;PMS_P1;PMS_P2;Temp;Humidity;BMP_temperature;BMP_pressure;BME280_temperature;BME280_humidity;BME280_pressure;Samples;Min_cycle;Max_cycle;Signal;HPM_P1;HPM_P2
2020/12/30 00:00:21;;;;;;;6.22;3.65;;;;;;;4.44;60.69;94063.16;4771237;29;20532;-39
2020/12/30 00:02:48;;;;;;;6.40;3.58;;;;;;;4.50;60.42;94061.81;4772644;30;20059;-38
2020/12/30 00:05:14;;;;;;;5.88;3.30;;;;;;;4.28;61.01;94064.97;4770961;30;20130;-39
2020/12/30 00:07:40;;;;;;;5.70;3.33;;;;;;;4.23;61.30;94071.34;4772992;29;20518;-39
2020/12/30 00:10:10;;;;;;;5.95;3.40;;;;;;;4.16;61.43;94073.78;4775037;30;20120;-37
2020/12/30 00:12:38;;;;;;;7.15;3.70;;;;;;;4.09;61.77;94073.59;4774357;30;20090;-38
2020/12/30 00:15:06;;;;;;;6.80;3.30;;;;;;;4.13;61.38;94069.16;4772785;30;20059;-41
2020/12/30 00:17:33;;;;;;;6.60;3.42;;;;;;;4.18;61.40;94076.94;4782292;29;20087;-41
2020/12/30 00:20:00;;;;;;;7.50;3.90;;;;;;;3.92;61.90;94078.06;4784167;30;20178;-39
2020/12/30 00:22:27;;;;;;;5.90;3.50;;;;;;;3.87;62.39;94075.63;4781924;30;20545;-40
2020/12/30 00:24:53;;;;;;;6.30;4.00;;;;;;;3.75;62.60;94080.97;4783047;30;20064;-39
2020/12/30 00:27:20;;;;;;;6.00;3.30;;;;;;;3.71;63.00;94080.06;4774975;30;20066;-40
2020/12/30 00:29:46;;;;;;;7.85;3.60;;;;;;;3.64;62.55;94069.94;4778859;29;20070;-40
2020/12/30 00:32:12;;;;;;;5.68;2.90;;;;;;;3.57;63.34;94076.94;4775948;30;20089;-40
2020/12/30 00:34:41;;;;;;;5.70;3.08;;;;;;;3.43;64.11;94088.72;4772744;29;20060;-41
2020/12/30 00:37:09;;;;;;;7.00;3.75;;;;;;;3.35;63.85;94083.47;4770313;29;20134;-39
2020/12/30 00:39:35;;;;;;;5.72;3.00;;;;;;;3.18;64.64;94085.22;4769689;30;20067;-39
2020/12/30 00:42:02;;;;;;;6.30;2.85;;;;;;;3.19;64.64;94086.00;4770675;29;20102;-39
2020/12/30 00:44:29;;;;;;;5.30;3.25;;;;;;;3.20;64.19;94079.53;4769124;30;20048;-40
2020/12/30 00:46:57;;;;;;;5.53;2.95;;;;;;;3.25;64.39;94090.81;4770633;30;20064;-41
2020/12/30 00:49:25;;;;;;;4.80;2.85;;;;;;;3.39;63.81;94089.72;4767849;30;20510;-39
2020/12/30 00:51:53;;;;;;;4.30;2.42;;;;;;;3.54;63.33;94088.28;4769030;30;20471;-39
2020/12/30 00:54:21;;;;;;;4.55;2.85;;;;;;;3.29;63.89;94096.28;4768496;30;20064;-40
2020/12/30 00:56:50;;;;;;;5.03;2.88;;;;;;;3.33;63.88;94099.84;4769075;30;20051;-39
2020/12/30 00:59:18;;;;;;;4.47;2.50;;;;;;;3.47;63.76;94094.97;4753144;30;20052;-39
2020/12/30 01:01:52;;;;;;;6.63;2.92;;;;;;;3.15;64.55;94101.13;4768647;30;20159;-40
2020/12/30 01:04:31;;;;;;;4.15;2.53;;;;;;;2.97;65.41;94092.50;4769115;30;20138;-41
2020/12/30 01:06:58;;;;;;;5.85;3.00;;;;;;;3.12;65.13;94093.75;4769892;30;20063;-40
2020/12/30 01:09:26;;;;;;;5.75;3.58;;;;;;;3.20;64.54;94098.25;4769472;30;20059;-41
2020/12/30 01:11:55;;;;;;;6.03;2.90;;;;;;;3.29;64.28;94090.94;4769105;30;20090;-38
2020/12/30 01:14:21;;;;;;;4.85;2.88;;;;;;;3.34;63.88;94104.06;4770385;30;20051;-39
2020/12/30 01:16:52;;;;;;;6.18;2.75;;;;;;;3.07;64.38;94110.00;4770506;30;20083;-39
2020/12/30 01:19:20;;;;;;;6.55;3.10;;;;;;;2.95;64.96;94108.06;4769993;30;20091;-39
2020/12/30 01:21:47;;;;;;;4.78;2.92;;;;;;;2.97;64.79;94103.19;4771102;30;20063;-40
2020/12/30 01:24:14;;;;;;;6.85;3.20;;;;;;;2.81;65.19;94119.03;4773179;30;20090;-40
2020/12/30 01:26:41;;;;;;;7.13;3.40;;;;;;;2.62;66.04;94116.03;4771557;29;20166;-40
2020/12/30 01:29:08;;;;;;;7.07;3.35;;;;;;;2.60;66.50;94118.25;4769654;29;20060;-39
2020/12/30 01:31:35;;;;;;;5.63;3.33;;;;;;;2.56;66.83;94118.91;4770173;29;20060;-39
2020/12/30 01:34:03;;;;;;;4.75;3.05;;;;;;;2.27;67.27;94105.59;4769651;30;20083;-39
2020/12/30 01:36:30;;;;;;;7.50;3.60;;;;;;;2.29;67.43;94111.41;4769717;29;20172;-40
2020/12/30 01:38:56;;;;;;;7.63;3.70;;;;;;;2.43;67.23;94133.28;4768715;30;20051;-41
2020/12/30 01:41:23;;;;;;;5.50;3.17;;;;;;;2.33;67.01;94123.00;4768289;30;20105;-40
2020/12/30 01:44:00;;;;;;;6.15;3.38;;;;;;;2.18;68.24;94120.88;4769270;30;20541;-40
2020/12/30 01:46:47;;;;;;;8.85;3.85;;;;;;;2.28;67.59;94123.97;4769693;30;20060;-41
2020/12/30 01:49:18;;;;;;;6.28;3.58;;;;;;;2.13;68.23;94129.84;4769313;30;20060;-40
2020/12/30 01:51:45;;;;;;;6.15;3.70;;;;;;;2.13;68.39;94126.41;4769588;30;20056;-40
2020/12/30 01:54:14;;;;;;;5.28;3.22;;;;;;;1.98;68.51;94128.53;4768624;30;20116;-40
2020/12/30 01:56:41;;;;;;;5.43;3.40;;;;;;;2.16;67.93;94134.56;4769682;29;20087;-40
2020/12/30 01:59:09;;;;;;;6.63;3.47;;;;;;;2.25;67.87;94134.50;4769645;30;20048;-39
2020/12/30 02:01:38;;;;;;;5.95;3.70;;;;;;;2.30;67.37;94128.97;4769757;30;20066;-39
2020/12/30 02:04:06;;;;;;;6.28;3.60;;;;;;;2.28;67.31;94123.19;4769896;30;20106;-39
2020/12/30 02:06:34;;;;;;;5.47;3.20;;;;;;;2.40;67.00;94125.16;4769143;29;20071;-38
2020/12/30 02:09:03;;;;;;;5.53;3.15;;;;;;;2.40;66.81;94125.91;4768577;30;20056;-40
2020/12/30 02:11:31;;;;;;;6.32;3.38;;;;;;;2.40;66.76;94123.25;4770538;29;20726;-39
2020/12/30 02:14:11;;;;;;;7.28;3.63;;;;;;;2.47;67.02;94125.41;4770396;30;20059;-39
2020/12/30 02:16:53;;;;;;;10.63;3.70;;;;;;;2.24;67.44;94122.25;4770393;29;20455;-39
2020/12/30 02:19:20;;;;;;;7.60;3.78;;;;;;;1.89;68.22;94119.03;4768310;30;20112;-38
2020/12/30 02:21:47;;;;;;;6.18;3.75;;;;;;;1.87;69.02;94124.66;4769603;29;20063;-40
2020/12/30 02:24:25;;;;;;;8.95;4.25;;;;;;;1.73;69.34;94113.44;4770395;30;20066;-39
2020/12/30 02:26:52;;;;;;;6.22;3.50;;;;;;;1.84;68.76;94130.63;4770405;30;20083;-40
2020/12/30 02:29:19;;;;;;;5.97;3.30;;;;;;;2.01;68.24;94127.88;4769219;29;20055;-40
2020/12/30 02:31:45;;;;;;;6.60;3.70;;;;;;;2.12;68.21;94130.97;4769348;30;20121;-40
2020/12/30 02:34:11;;;;;;;7.03;4.18;;;;;;;2.04;68.58;94129.13;4769223;29;20507;-38
2020/12/30 02:36:38;;;;;;;5.38;3.47;;;;;;;1.88;69.20;94131.56;4769445;29;20580;-39
2020/12/30 02:39:05;;;;;;;7.97;3.63;;;;;;;2.02;68.97;94134.00;4770206;30;20056;-39
2020/12/30 02:41:32;;;;;;;7.50;4.15;;;;;;;2.19;68.46;94138.47;4769047;29;20087;-39
2020/12/30 02:44:00;;;;;;;6.13;3.67;;;;;;;2.30;68.10;94139.66;4769164;29;20113;-39
2020/12/30 02:46:27;;;;;;;7.53;3.38;;;;;;;2.34;68.52;94132.59;4769119;30;20113;-39
2020/12/30 02:48:53;;;;;;;5.50;2.90;;;;;;;2.33;68.36;94134.44;4767209;30;20063;-39
2020/12/30 02:51:20;;;;;;;6.65;3.40;;;;;;;2.30;68.67;94145.75;4772493;30;20067;-38
2020/12/30 02:53:47;;;;;;;6.47;3.50;;;;;;;2.43;68.02;94138.63;4772842;30;20556;-39
2020/12/30 02:56:17;;;;;;;7.47;2.97;;;;;;;2.55;67.74;94138.69;4772077;29;20062;-41
2020/12/30 02:58:45;;;;;;;5.95;3.05;;;;;;;2.65;67.41;94140.19;4771252;29;20055;-39
2020/12/30 03:01:13;;;;;;;6.13;2.88;;;;;;;2.67;67.16;94140.66;4771739;30;20134;-40
2020/12/30 03:03:40;;;;;;;4.78;2.45;;;;;;;2.68;67.14;94144.13;4771996;29;20070;-41
2020/12/30 03:06:07;;;;;;;4.32;2.20;;;;;;;2.78;67.11;94144.50;4771806;30;20051;-39
2020/12/30 03:08:34;;;;;;;3.58;2.35;;;;;;;2.92;66.71;94143.44;4771035;30;20109;-40
2020/12/30 03:11:01;;;;;;;4.13;2.17;;;;;;;3.04;65.88;94149.63;4771522;30;20550;-39
2020/12/30 03:13:27;;;;;;;3.67;1.98;;;;;;;2.93;65.94;94137.03;4771739;29;20522;-38
2020/12/30 03:15:54;;;;;;;4.40;2.30;;;;;;;2.81;66.83;94151.88;4770619;30;20059;-39
2020/12/30 03:18:20;;;;;;;4.30;2.55;;;;;;;2.87;66.90;94151.69;4770539;30;20094;-39
2020/12/30 03:20:47;;;;;;;5.40;2.65;;;;;;;2.58;66.73;94122.03;4770010;29;20051;-38
2020/12/30 03:23:13;;;;;;;4.72;2.33;;;;;;;2.89;66.38;94162.78;4771555;29;20106;-39
2020/12/30 03:25:42;;;;;;;4.80;2.10;;;;;;;2.95;66.17;94161.50;4771100;30;20087;-40
2020/12/30 03:28:09;;;;;;;4.75;2.40;;;;;;;2.79;66.56;94163.97;4770297;30;20060;-42
2020/12/30 03:30:37;;;;;;;4.57;2.40;;;;;;;2.64;66.84;94160.00;4789398;24;20052;-39
2020/12/30 03:33:03;;;;;;;4.53;2.30;;;;;;;2.61;67.06;94158.00;4771309;30;20167;-38
2020/12/30 03:35:29;;;;;;;3.95;2.20;;;;;;;2.69;66.87;94159.03;4771181;30;20056;-40
2020/12/30 03:37:56;;;;;;;4.75;2.50;;;;;;;2.89;66.29;94166.25;4770326;30;20059;-40
2020/12/30 03:40:22;;;;;;;3.35;1.80;;;;;;;2.90;66.41;94154.47;4770872;30;20483;-41
2020/12/30 03:42:48;;;;;;;4.72;2.28;;;;;;;2.85;66.24;94143.97;4770658;30;20052;-38
2020/12/30 03:45:15;;;;;;;4.95;2.17;;;;;;;2.98;66.43;94161.63;4771079;29;20059;-39
2020/12/30 03:47:42;;;;;;;5.93;2.33;;;;;;;3.00;65.90;94164.75;4770197;30;20060;-44
2020/12/30 03:50:08;;;;;;;5.20;2.35;;;;;;;2.86;66.62;94166.94;4770690;30;20418;-40
2020/12/30 03:52:35;;;;;;;4.20;2.25;;;;;;;2.39;66.76;94103.00;4770725;30;20134;-39
2020/12/30 03:55:01;;;;;;;4.55;2.22;;;;;;;2.67;66.99;94167.38;4770565;30;20059;-42
2020/12/30 03:57:29;;;;;;;4.15;2.63;;;;;;;2.61;67.44;94167.88;4769775;30;20055;-42
2020/12/30 03:59:55;;;;;;;4.47;2.70;;;;;;;2.45;67.86;94181.03;4770501;30;20433;-43
2020/12/30 04:02:21;;;;;;;5.40;2.97;;;;;;;2.48;67.93;94172.38;4770315;29;20147;-40
2020/12/30 04:04:48;;;;;;;6.30;3.22;;;;;;;2.58;67.95;94171.97;4770568;30;20135;-43
2020/12/30 04:07:14;;;;;;;7.03;3.17;;;;;;;2.59;68.23;94170.88;4770096;30;20476;-40
2020/12/30 04:09:40;;;;;;;5.82;3.10;;;;;;;2.59;68.03;94170.88;4770269;30;20093;-44
2020/12/30 04:12:07;;;;;;;5.05;3.58;;;;;;;2.67;68.04;94175.38;4770281;30;20422;-43
2020/12/30 04:14:33;;;;;;;6.68;3.83;;;;;;;2.62;68.18;94174.78;4770343;30;20494;-43
2020/12/30 04:16:59;;;;;;;7.57;3.67;;;;;;;2.67;68.10;94171.94;4770320;30;20222;-42
2020/12/30 04:19:26;;;;;;;7.63;4.30;;;;;;;2.73;67.85;94168.75;4769655;30;20139;-42
2020/12/30 04:21:52;;;;;;;8.60;4.43;;;;;;;2.77;67.71;94174.22;4769941;30;20047;-42
2020/12/30 04:24:18;;;;;;;5.93;3.58;;;;;;;2.72;67.84;94169.06;4770128;29;20066;-42
2020/12/30 04:26:45;;;;;;;5.70;3.58;;;;;;;2.93;67.09;94171.75;4769903;30;20060;-43
2020/12/30 04:29:11;;;;;;;6.15;3.42;;;;;;;3.00;66.51;94172.00;4769109;29;20091;-44
2020/12/30 04:31:38;;;;;;;5.70;3.45;;;;;;;3.07;66.02;94174.13;4769726;30;20537;-44
2020/12/30 04:34:05;;;;;;;6.22;3.80;;;;;;;3.04;66.22;94179.00;4769766;30;20538;-45
2020/12/30 04:36:32;;;;;;;7.47;3.92;;;;;;;3.10;66.02;94168.16;4769923;29;20066;-45
2020/12/30 04:38:58;;;;;;;8.48;3.50;;;;;;;3.31;65.35;94174.22;4769110;30;20143;-40
2020/12/30 04:41:32;;;;;;;6.63;4.05;;;;;;;3.43;65.22;94178.84;4769604;29;20060;-40
2020/12/30 04:44:04;;;;;;;6.50;3.63;;;;;;;3.45;64.86;94185.44;4768819;30;20514;-39
2020/12/30 04:46:31;;;;;;;7.18;3.65;;;;;;;3.46;64.63;94167.50;4770067;30;20059;-40
2020/12/30 04:48:59;;;;;;;6.47;3.90;;;;;;;3.54;64.31;94169.28;4769011;29;20455;-39
2020/12/30 04:51:26;;;;;;;6.95;3.97;;;;;;;3.49;64.54;94178.31;4769457;29;20063;-39
2020/12/30 04:53:56;;;;;;;6.97;3.90;;;;;;;3.24;65.31;94182.00;4769554;30;20150;-39
2020/12/30 04:56:40;;;;;;;7.82;3.90;;;;;;;3.14;65.69;94187.75;4769715;30;20056;-39
2020/12/30 04:59:08;;;;;;;9.27;3.70;;;;;;;2.73;67.21;94186.63;4768959;30;20068;-38
2020/12/30 05:01:54;;;;;;;7.40;3.90;;;;;;;2.63;67.83;94179.78;4769345;29;20059;-39
2020/12/30 05:04:21;;;;;;;6.60;3.20;;;;;;;2.64;67.40;94189.38;4769419;29;20059;-41
2020/12/30 05:06:49;;;;;;;5.82;3.28;;;;;;;2.76;67.20;94191.31;4769356;30;20151;-42
2020/12/30 05:09:21;;;;;;;6.22;3.85;;;;;;;2.96;66.59;94190.56;4768802;30;20067;-38
2020/12/30 05:11:48;;;;;;;7.03;3.67;;;;;;;2.97;66.29;94192.13;4769384;30;20142;-39
2020/12/30 05:14:14;;;;;;;6.38;3.70;;;;;;;2.98;66.45;94204.38;4769048;29;20135;-38
2020/12/30 05:16:40;;;;;;;6.07;3.30;;;;;;;2.89;66.37;94203.63;4769252;29;20090;-38
2020/12/30 05:19:07;;;;;;;5.72;3.17;;;;;;;2.94;66.34;94219.50;4768787;29;20417;-38
2020/12/30 05:21:33;;;;;;;4.47;2.70;;;;;;;2.78;66.85;94221.94;4769347;30;20122;-40
2020/12/30 05:23:59;;;;;;;5.10;2.47;;;;;;;2.85;66.59;94223.31;4769160;30;20063;-40
2020/12/30 05:26:27;;;;;;;4.22;2.55;;;;;;;2.75;66.75;94230.59;4769081;30;20138;-39
2020/12/30 05:28:54;;;;;;;4.30;2.50;;;;;;;2.58;67.39;94231.50;4768322;30;20139;-38
2020/12/30 05:31:20;;;;;;;5.72;2.03;;;;;;;2.69;67.39;94233.78;4768890;30;20056;-39
2020/12/30 05:33:48;;;;;;;7.22;2.80;;;;;;;2.86;66.64;94233.69;4769140;30;20070;-38
2020/12/30 05:36:15;;;;;;;3.15;2.00;;;;;;;2.88;66.47;94238.72;4768881;30;20421;-40
2020/12/30 05:38:41;;;;;;;4.53;1.83;;;;;;;2.89;66.36;94238.38;4768321;30;20139;-40
2020/12/30 05:41:21;;;;;;;4.13;2.03;;;;;;;2.99;66.06;94238.00;4769005;30;20134;-40
2020/12/30 05:43:47;;;;;;;4.22;2.00;;;;;;;3.04;66.08;94243.13;4768775;30;20481;-39
2020/12/30 05:46:34;;;;;;;5.35;1.95;;;;;;;3.09;66.13;94246.72;4768925;30;20090;-41
2020/12/30 05:49:00;;;;;;;4.63;2.20;;;;;;;3.15;66.00;94245.41;4768219;30;20067;-40
2020/12/30 05:51:28;;;;;;;3.90;2.15;;;;;;;3.14;66.16;94258.00;4768710;29;20060;-39
2020/12/30 05:54:13;;;;;;;4.65;2.25;;;;;;;3.02;66.86;94255.25;4768628;29;20056;-41
2020/12/30 05:56:40;;;;;;;3.83;2.08;;;;;;;2.98;67.19;94257.78;4768927;30;20064;-38
2020/12/30 05:59:07;;;;;;;7.00;2.40;;;;;;;2.89;67.75;94259.72;4767964;30;20058;-38
2020/12/30 06:01:36;;;;;;;4.30;2.55;;;;;;;3.02;67.47;94255.25;4768839;29;20085;-38
2020/12/30 06:04:19;;;;;;;5.47;2.53;;;;;;;2.90;68.36;94274.69;4768584;30;20139;-38
2020/12/30 06:06:47;;;;;;;4.68;2.40;;;;;;;2.94;68.16;94267.56;4769033;29;20083;-38
2020/12/30 06:09:18;;;;;;;4.25;2.90;;;;;;;2.98;67.66;94262.34;4767923;29;20060;-39
2020/12/30 06:11:53;;;;;;;5.90;3.25;;;;;;;2.73;69.28;94269.41;4767633;30;20206;-38
2020/12/30 06:14:22;;;;;;;4.30;2.67;;;;;;;2.88;68.77;94276.09;4768684;30;20056;-38
2020/12/30 06:16:53;;;;;;;5.43;2.60;;;;;;;2.80;69.09;94267.03;4768435;30;20139;-42
2020/12/30 06:19:23;;;;;;;5.90;2.72;;;;;;;2.85;69.02;94282.88;4767873;29;20083;-40
2020/12/30 06:21:50;;;;;;;5.32;2.90;;;;;;;2.96;68.78;94281.41;4768612;30;20083;-39
2020/12/30 06:24:17;;;;;;;5.00;3.08;;;;;;;3.02;68.75;94277.44;4768770;30;20594;-38
2020/12/30 06:26:43;;;;;;;7.93;3.10;;;;;;;3.01;68.87;94280.41;4772079;30;20095;-38
2020/12/30 06:29:13;;;;;;;5.60;3.05;;;;;;;3.17;68.28;94283.31;4771257;29;20058;-42
2020/12/30 06:31:48;;;;;;;5.85;3.20;;;;;;;3.16;68.63;94281.75;4771894;29;20468;-43
2020/12/30 06:34:16;;;;;;;5.05;2.92;;;;;;;3.16;68.21;94271.84;4771889;30;20090;-43
2020/12/30 06:36:44;;;;;;;3.90;2.60;;;;;;;3.12;68.47;94283.47;4770700;30;20134;-43
2020/12/30 06:39:24;;;;;;;4.95;2.55;;;;;;;3.32;67.81;94288.06;4770902;30;20071;-41
2020/12/30 06:42:03;;;;;;;5.95;3.25;;;;;;;3.29;68.18;94288.72;4771652;30;20582;-40
2020/12/30 06:44:43;;;;;;;6.78;2.80;;;;;;;3.23;68.17;94288.13;4773015;30;20422;-43
2020/12/30 06:47:11;;;;;;;4.93;3.22;;;;;;;3.06;68.39;94290.16;4771789;29;20059;-43
2020/12/30 06:49:38;;;;;;;4.40;2.50;;;;;;;3.16;68.25;94298.56;4770950;30;20079;-44
2020/12/30 06:52:27;;;;;;;7.57;4.82;;;;;;;3.22;68.09;94299.16;4771566;29;20121;-42
2020/12/30 06:54:53;;;;;;;4.65;3.15;;;;;;;3.19;68.02;94297.13;4771832;30;20083;-40
2020/12/30 06:57:39;;;;;;;5.13;2.80;;;;;;;3.20;68.17;94309.38;4770838;29;20083;-40
2020/12/30 07:00:35;;;;;;;7.00;4.72;;;;;;;3.27;68.08;94309.63;4771463;29;20052;-40
2020/12/30 07:03:11;;;;;;;5.55;3.58;;;;;;;3.23;68.17;94311.41;4771382;30;20094;-40
2020/12/30 07:05:38;;;;;;;7.88;4.57;;;;;;;3.30;67.42;94309.00;4771469;30;20592;-40
2020/12/30 07:08:05;;;;;;;8.32;4.63;;;;;;;3.33;67.56;94327.06;4770911;30;20062;-39
2020/12/30 07:10:39;;;;;;;8.88;4.28;;;;;;;3.46;67.25;94317.22;4771236;30;20056;-40
2020/12/30 07:13:07;;;;;;;5.40;3.13;;;;;;;3.53;66.69;94319.38;4771317;30;20056;-40
2020/12/30 07:15:34;;;;;;;5.20;3.65;;;;;;;3.57;66.43;94325.63;4771593;30;20146;-40
2020/12/30 07:18:04;;;;;;;4.72;2.80;;;;;;;3.38;66.92;94328.75;4770645;30;20059;-39
2020/12/30 07:20:39;;;;;;;6.72;3.13;;;;;;;3.36;66.59;94329.06;4771307;30;20155;-40
2020/12/30 07:23:09;;;;;;;4.80;2.72;;;;;;;3.23;66.89;94322.09;4771368;30;20143;-39
2020/12/30 07:25:35;;;;;;;4.28;2.30;;;;;;;3.38;66.18;94329.53;4771809;30;20086;-41
2020/12/30 07:28:03;;;;;;;5.97;2.90;;;;;;;3.23;66.37;94322.88;4770398;30;20127;-41
2020/12/30 07:30:31;;;;;;;4.68;2.58;;;;;;;3.21;66.51;94330.41;4771141;30;20540;-39
2020/12/30 07:32:59;;;;;;;5.88;3.25;;;;;;;3.30;66.13;94341.06;4771214;29;20060;-43
2020/12/30 07:35:25;;;;;;;4.88;2.78;;;;;;;3.24;66.36;94340.47;4770612;30;20067;-40
2020/12/30 07:37:52;;;;;;;6.43;4.13;;;;;;;3.18;66.21;94340.97;4770789;30;20087;-41
2020/12/30 07:40:19;;;;;;;4.57;3.08;;;;;;;3.40;65.85;94354.03;4771486;30;20060;-40
2020/12/30 07:42:55;;;;;;;6.45;3.90;;;;;;;3.53;65.13;94351.44;4770925;29;20052;-40
2020/12/30 07:45:21;;;;;;;6.43;2.30;;;;;;;3.42;64.99;94351.84;4771201;30;20075;-41
2020/12/30 07:47:48;;;;;;;3.63;2.15;;;;;;;3.44;65.13;94349.59;4770543;29;20415;-40
2020/12/30 07:50:14;;;;;;;4.00;1.90;;;;;;;3.42;64.81;94359.84;4771207;30;20503;-41
2020/12/30 07:52:40;;;;;;;3.65;2.22;;;;;;;3.37;64.69;94357.38;4771095;29;20139;-41
2020/12/30 07:55:07;;;;;;;5.25;2.20;;;;;;;3.47;64.40;94362.31;4771035;30;20064;-39
2020/12/30 07:57:33;;;;;;;4.20;2.70;;;;;;;3.48;64.61;94371.16;4770225;29;20068;-39
2020/12/30 07:59:59;;;;;;;5.88;2.20;;;;;;;3.59;63.83;94368.88;4770945;30;20075;-40
2020/12/30 08:02:26;;;;;;;3.60;2.08;;;;;;;3.80;62.72;94366.19;4770540;30;20079;-40
2020/12/30 08:05:00;;;;;;;5.22;2.47;;;;;;;3.70;63.58;94368.13;4771016;30;20060;-39
2020/12/30 08:07:31;;;;;;;4.63;2.20;;;;;;;3.65;63.41;94375.59;4769723;30;20059;-40
2020/12/30 08:09:58;;;;;;;5.45;2.55;;;;;;;3.88;62.88;94378.72;4770482;30;20060;-38
2020/12/30 08:12:24;;;;;;;6.35;2.58;;;;;;;3.88;62.24;94374.16;4770412;30;20066;-41
2020/12/30 08:14:52;;;;;;;5.38;2.80;;;;;;;3.95;62.31;94379.75;4770490;29;20087;-44
2020/12/30 08:17:20;;;;;;;4.03;2.20;;;;;;;3.77;61.94;94383.69;4768714;30;20083;-41
2020/12/30 08:19:51;;;;;;;7.20;2.97;;;;;;;3.95;61.64;94385.09;4770849;29;20086;-38
2020/12/30 08:22:20;;;;;;;3.88;1.92;;;;;;;4.01;60.58;94387.59;4771537;29;20116;-42
2020/12/30 08:24:54;;;;;;;;;;;;;;;4.02;60.37;94391.81;4770966;30;20067;-40
2020/12/30 08:27:29;;;;;;;3.92;2.05;;;;;;;3.86;60.63;94388.97;4768960;29;19972;-39
2020/12/30 08:30:16;;;;;;;3.78;1.67;;;;;;;3.76;60.79;94395.47;4769924;29;20055;-42
2020/12/30 08:33:07;;;;;;;3.58;1.95;;;;;;;3.72;60.80;94403.38;4769272;30;20120;-39
2020/12/30 08:35:46;;;;;;;3.15;1.75;;;;;;;3.58;61.08;94402.84;4770261;30;20047;-39
2020/12/30 08:38:17;;;;;;;3.53;1.90;;;;;;;3.75;60.65;94397.38;4768638;30;20144;-42
2020/12/30 08:40:48;;;;;;;4.53;2.38;;;;;;;4.07;59.47;94408.47;4770306;30;20079;-39
2020/12/30 08:43:32;;;;;;;5.35;2.55;;;;;;;4.02;58.97;94397.94;4770219;30;20055;-39
2020/12/30 08:46:06;;;;;;;4.78;2.60;;;;;;;4.18;58.63;94419.56;4769004;30;20047;-44
2020/12/30 08:48:39;;;;;;;7.63;4.53;;;;;;;4.14;58.95;94416.75;4768472;30;20059;-43
2020/12/30 08:51:06;;;;;;;6.95;4.25;;;;;;;4.34;58.11;94411.69;4769572;30;20075;-43
2020/12/30 08:53:34;;;;;;;5.47;3.08;;;;;;;4.31;58.32;94423.84;4769544;30;20117;-42
2020/12/30 08:56:01;;;;;;;10.82;5.60;;;;;;;4.33;58.04;94424.31;4769512;30;20142;-41
2020/12/30 08:58:28;;;;;;;11.98;6.47;;;;;;;4.57;57.89;94433.53;4769244;30;20063;-41
2020/12/30 09:00:55;;;;;;;5.97;3.58;;;;;;;4.40;57.85;94423.78;4769908;29;20125;-42
2020/12/30 09:03:25;;;;;;;5.45;2.42;;;;;;;4.56;57.91;94434.66;4769754;30;20135;-42
2020/12/30 09:05:54;;;;;;;7.13;2.08;;;;;;;4.59;57.85;94437.44;4769883;30;20090;-42
2020/12/30 09:08:25;;;;;;;4.30;2.83;;;;;;;4.66;57.49;94439.59;4769013;30;20135;-43
2020/12/30 09:10:53;;;;;;;3.45;1.85;;;;;;;4.63;57.31;94434.88;4769679;30;20075;-43
2020/12/30 09:13:28;;;;;;;4.72;2.05;;;;;;;4.80;56.89;94423.19;4769395;29;20586;-42
2020/12/30 09:15:54;;;;;;;8.35;2.30;;;;;;;5.00;56.68;94424.25;4770020;29;20493;-39
2020/12/30 09:18:23;;;;;;;4.78;2.17;;;;;;;5.05;56.37;94427.50;4769108;30;20063;-43
2020/12/30 09:20:51;;;;;;;3.47;1.88;;;;;;;5.21;55.73;94434.88;4769870;29;20113;-44
2020/12/30 09:23:21;;;;;;;4.43;1.98;;;;;;;5.34;55.22;94439.13;4769358;29;20087;-40
2020/12/30 09:25:50;;;;;;;5.75;2.50;;;;;;;5.44;54.93;94433.31;4769273;30;20120;-43
2020/12/30 09:28:18;;;;;;;4.22;2.38;;;;;;;5.46;54.58;94438.34;4769017;29;20060;-39
2020/12/30 09:30:46;;;;;;;4.85;2.50;;;;;;;5.29;54.64;94433.97;4769664;30;20140;-38
2020/12/30 09:33:18;;;;;;;5.60;2.80;;;;;;;5.16;55.15;94442.00;4769974;30;20139;-39
2020/12/30 09:35:46;;;;;;;4.50;2.47;;;;;;;5.32;54.65;94438.69;4769596;30;20067;-39
2020/12/30 09:38:17;;;;;;;3.35;1.95;;;;;;;5.00;54.76;94426.91;4768543;29;20142;-41
2020/12/30 09:40:45;;;;;;;6.97;2.17;;;;;;;4.79;55.63;94449.22;4769095;30;20075;-39
2020/12/30 09:43:14;;;;;;;5.00;2.75;;;;;;;4.75;55.92;94453.69;4769361;30;20067;-42
2020/12/30 09:45:41;;;;;;;4.72;2.00;;;;;;;4.86;55.52;94435.28;4768806;30;20499;-46
2020/12/30 09:48:09;;;;;;;4.78;2.22;;;;;;;4.96;55.75;94442.09;4768381;29;20083;-41
2020/12/30 09:50:36;;;;;;;4.32;1.90;;;;;;;4.86;55.95;94444.09;4768757;29;20515;-40
2020/12/30 09:53:03;;;;;;;4.35;2.22;;;;;;;5.14;55.21;94449.63;4769017;30;20064;-39
2020/12/30 09:55:29;;;;;;;6.05;2.08;;;;;;;5.10;55.04;94442.56;4768936;29;20084;-41
2020/12/30 09:57:56;;;;;;;4.43;2.40;;;;;;;5.14;55.82;94436.22;4768090;30;20063;-39
2020/12/30 10:00:23;;;;;;;5.97;3.92;;;;;;;5.20;55.73;94434.09;4768759;30;20071;-39
2020/12/30 10:02:49;;;;;;;4.95;2.60;;;;;;;5.27;55.43;94441.59;4770075;30;20507;-38
2020/12/30 10:05:15;;;;;;;6.45;2.65;;;;;;;5.19;55.30;94445.16;4767803;30;20083;-39
2020/12/30 10:07:42;;;;;;;5.07;2.67;;;;;;;5.10;55.55;94435.31;4768131;30;20060;-39
2020/12/30 10:10:08;;;;;;;4.40;2.75;;;;;;;5.09;55.97;94432.97;4768553;29;20582;-40
2020/12/30 10:12:38;;;;;;;4.85;2.85;;;;;;;5.00;56.26;94437.63;4767401;30;20052;-40
2020/12/30 10:15:08;;;;;;;5.93;2.42;;;;;;;5.15;55.85;94439.69;4768872;30;20139;-39
2020/12/30 10:17:35;;;;;;;3.80;2.15;;;;;;;5.15;55.58;94434.31;4768515;30;20063;-39
2020/12/30 10:20:03;;;;;;;4.45;2.10;;;;;;;5.26;55.29;94438.09;4768691;30;20064;-44
2020/12/30 10:22:31;;;;;;;5.85;2.08;;;;;;;5.30;55.02;94430.97;4769175;30;20067;-38
2020/12/30 10:25:04;;;;;;;3.60;1.83;;;;;;;5.34;54.87;94429.19;4769016;30;20075;-38
2020/12/30 10:27:30;;;;;;;5.68;2.50;;;;;;;5.39;54.82;94423.59;4768481;30;20116;-39
2020/12/30 10:29:56;;;;;;;5.32;2.22;;;;;;;5.37;54.35;94420.47;4768831;29;20063;-39
2020/12/30 10:32:23;;;;;;;4.50;1.95;;;;;;;5.35;54.61;94430.75;4768422;30;20488;-41
2020/12/30 10:34:50;;;;;;;3.85;1.83;;;;;;;5.33;54.59;94429.50;4768833;30;20087;-39
2020/12/30 10:37:17;;;;;;;4.90;2.17;;;;;;;5.36;54.39;94426.97;4768480;30;20064;-47
2020/12/30 10:39:45;;;;;;;4.18;2.17;;;;;;;5.42;54.29;94435.53;4768477;30;20056;-43
2020/12/30 10:42:11;;;;;;;3.17;1.90;;;;;;;5.43;54.58;94441.69;4768563;29;20098;-38
2020/12/30 10:44:37;;;;;;;4.53;2.10;;;;;;;5.51;54.26;94435.44;4768531;29;20087;-41
2020/12/30 10:47:04;;;;;;;4.78;2.10;;;;;;;5.62;53.61;94431.16;4768462;30;20485;-42
2020/12/30 10:49:30;;;;;;;5.32;2.00;;;;;;;5.62;53.69;94437.34;4768469;30;20087;-42
2020/12/30 10:51:56;;;;;;;5.03;2.50;;;;;;;5.67;53.32;94439.00;4768074;29;20064;-41
2020/12/30 10:54:23;;;;;;;5.88;1.80;;;;;;;5.60;53.56;94423.47;4768592;30;20135;-41
2020/12/30 10:56:51;;;;;;;5.03;2.38;;;;;;;5.70;53.48;94438.34;4768341;29;20626;-42
2020/12/30 10:59:18;;;;;;;8.00;2.33;;;;;;;5.80;53.48;94432.50;4767874;30;20068;-43
2020/12/30 11:01:48;;;;;;;9.05;2.45;;;;;;;5.79;53.82;94430.16;4768352;30;20079;-41
2020/12/30 11:04:15;;;;;;;4.88;2.25;;;;;;;5.75;53.18;94434.63;4768320;30;20463;-42
2020/12/30 11:06:41;;;;;;;4.78;2.22;;;;;;;5.54;54.32;94440.13;4768193;30;20106;-43
2020/12/30 11:09:08;;;;;;;4.72;2.10;;;;;;;5.31;55.29;94442.47;4767694;30;20431;-41
2020/12/30 11:11:35;;;;;;;7.53;1.92;;;;;;;5.33;55.43;94440.22;4769684;30;20081;-43
2020/12/30 11:14:02;;;;;;;4.28;2.20;;;;;;;5.10;56.41;94442.56;4770302;30;20117;-40
2020/12/30 11:16:29;;;;;;;4.30;1.95;;;;;;;5.16;57.01;94446.59;4770378;29;20062;-43
2020/12/30 11:18:56;;;;;;;4.72;2.03;;;;;;;5.14;56.77;94444.25;4770576;30;20515;-40
2020/12/30 11:21:23;;;;;;;3.83;1.95;;;;;;;5.01;56.88;94440.00;4771190;30;20084;-41
2020/12/30 11:23:49;;;;;;;4.32;2.00;;;;;;;5.02;57.09;94446.16;4771428;29;20131;-40
2020/12/30 11:26:15;;;;;;;6.18;2.20;;;;;;;5.39;57.04;94446.94;4771256;29;20502;-40
2020/12/30 11:28:42;;;;;;;6.28;1.90;;;;;;;5.55;55.88;94425.59;4770841;29;20067;-41
2020/12/30 11:31:08;;;;;;;3.35;1.80;;;;;;;5.78;55.00;94437.41;4771304;29;20058;-39
2020/12/30 11:33:36;;;;;;;6.93;2.30;;;;;;;5.85;54.71;94434.19;4771991;30;20493;-43
2020/12/30 11:36:03;;;;;;;5.82;2.10;;;;;;;5.69;55.47;94430.59;4771388;30;20126;-38
2020/12/30 11:38:29;;;;;;;7.03;3.35;;;;;;;5.86;54.92;94431.16;4770583;30;20059;-39
2020/12/30 11:40:56;;;;;;;5.28;2.20;;;;;;;5.91;54.38;94432.03;4771173;30;20079;-39
2020/12/30 11:43:22;;;;;;;4.57;2.47;;;;;;;6.04;54.02;94436.28;4772048;29;20056;-39
2020/12/30 11:45:49;;;;;;;3.58;1.77;;;;;;;6.06;53.92;94437.50;4770910;30;20060;-43
2020/12/30 11:48:17;;;;;;;2.78;1.60;;;;;;;5.95;53.71;94438.34;4770190;29;20109;-43